Terminal Aerodrome Forecast
Issued by NWS Wakefield, VA

Home | Current Version | Previous Version | Text Only | Print | Product List | Glossary On
Versions: 1 2 3 4 5 6 7 8 9 10 11 12 13 14 15 16 17 18 19 20 21 22 23 24 25 26 27 28 29 30
372
FTUS41 KAKQ 060846 AAB
TAFRIC
TAF AMD
KRIC 060846Z 0609/0706 36006KT 4SM RA BR BKN007 OVC013
      TEMPO 0609/0610 2SM RA BR BKN020 OVC040
     FM061100 35009KT 5SM -RA BR OVC008
     FM061800 32007KT P6SM OVC015
     FM070400 31005KT 4SM BR OVC007=

USA.gov is the U.S. government's official web portal to all federal, state and local government web resources and services.